sensor_id;sensor_type;location;lat;lon;timestamp;P1;durP1;ratioP1;P2;durP2;ratioP2
68507;SDS011;55510;49.560;19.090;2023-11-25T00:01:36;10.60;;;3.77;;
68507;SDS011;55510;49.560;19.090;2023-11-25T00:04:37;11.38;;;4.30;;
68507;SDS011;55510;49.560;19.090;2023-11-25T00:07:37;8.10;;;3.20;;
68507;SDS011;55510;49.560;19.090;2023-11-25T00:10:38;8.68;;;3.45;;
68507;SDS011;55510;49.560;19.090;2023-11-25T00:13:39;7.73;;;3.10;;
68507;SDS011;55510;49.560;19.090;2023-11-25T00:16:40;7.13;;;2.83;;
68507;SDS011;55510;49.560;19.090;2023-11-25T00:19:41;8.00;;;3.40;;
68507;SDS011;55510;49.560;19.090;2023-11-25T00:22:42;7.00;;;3.07;;
68507;SDS011;55510;49.560;19.090;2023-11-25T00:25:43;8.18;;;3.58;;
68507;SDS011;55510;49.560;19.090;2023-11-25T00:28:43;10.67;;;5.10;;
68507;SDS011;55510;49.560;19.090;2023-11-25T00:31:48;8.88;;;3.50;;
68507;SDS011;55510;49.560;19.090;2023-11-25T00:34:49;9.80;;;4.22;;
68507;SDS011;55510;49.560;19.090;2023-11-25T00:37:50;8.07;;;3.40;;
68507;SDS011;55510;49.560;19.090;2023-11-25T00:40:50;9.25;;;3.42;;
68507;SDS011;55510;49.560;19.090;2023-11-25T00:43:51;6.33;;;1.80;;
68507;SDS011;55510;49.560;19.090;2023-11-25T00:46:57;4.30;;;1.77;;
68507;SDS011;55510;49.560;19.090;2023-11-25T00:49:57;7.50;;;2.37;;
68507;SDS011;55510;49.560;19.090;2023-11-25T00:52:58;12.55;;;5.35;;
68507;SDS011;55510;49.560;19.090;2023-11-25T00:55:59;12.97;;;4.67;;
68507;SDS011;55510;49.560;19.090;2023-11-25T00:58:59;8.32;;;3.30;;
68507;SDS011;55510;49.560;19.090;2023-11-25T01:02:00;6.80;;;2.50;;
68507;SDS011;55510;49.560;19.090;2023-11-25T01:05:01;5.18;;;1.20;;
68507;SDS011;55510;49.560;19.090;2023-11-25T01:08:05;3.47;;;0.63;;
68507;SDS011;55510;49.560;19.090;2023-11-25T01:11:06;5.10;;;1.27;;
68507;SDS011;55510;49.560;19.090;2023-11-25T01:17:41;7.68;;;1.45;;
68507;SDS011;55510;49.560;19.090;2023-11-25T01:20:42;4.40;;;0.77;;
68507;SDS011;55510;49.560;19.090;2023-11-25T01:23:43;7.97;;;1.57;;
68507;SDS011;55510;49.560;19.090;2023-11-25T01:26:57;4.97;;;1.70;;
68507;SDS011;55510;49.560;19.090;2023-11-25T01:29:58;7.97;;;3.40;;
68507;SDS011;55510;49.560;19.090;2023-11-25T01:32:59;4.70;;;1.70;;
68507;SDS011;55510;49.560;19.090;2023-11-25T01:36:03;6.53;;;2.20;;
68507;SDS011;55510;49.560;19.090;2023-11-25T01:39:11;6.33;;;1.83;;
68507;SDS011;55510;49.560;19.090;2023-11-25T01:42:14;6.78;;;2.28;;
68507;SDS011;55510;49.560;19.090;2023-11-25T01:45:14;10.80;;;2.53;;
68507;SDS011;55510;49.560;19.090;2023-11-25T01:48:15;6.23;;;2.33;;
68507;SDS011;55510;49.560;19.090;2023-11-25T01:51:16;5.80;;;1.73;;
68507;SDS011;55510;49.560;19.090;2023-11-25T01:54:16;6.27;;;2.10;;
68507;SDS011;55510;49.560;19.090;2023-11-25T02:00:39;6.32;;;2.08;;
68507;SDS011;55510;49.560;19.090;2023-11-25T02:06:59;6.43;;;1.95;;
68507;SDS011;55510;49.560;19.090;2023-11-25T02:10:00;5.45;;;2.15;;
68507;SDS011;55510;49.560;19.090;2023-11-25T02:13:01;5.87;;;2.23;;
68507;SDS011;55510;49.560;19.090;2023-11-25T02:16:03;5.57;;;2.72;;
68507;SDS011;55510;49.560;19.090;2023-11-25T02:19:04;6.20;;;2.67;;
68507;SDS011;55510;49.560;19.090;2023-11-25T02:22:08;5.40;;;2.03;;
68507;SDS011;55510;49.560;19.090;2023-11-25T02:28:48;8.52;;;2.38;;
68507;SDS011;55510;49.560;19.090;2023-11-25T02:31:49;5.67;;;1.90;;
68507;SDS011;55510;49.560;19.090;2023-11-25T02:34:49;5.20;;;1.65;;
68507;SDS011;55510;49.560;19.090;2023-11-25T02:37:51;6.75;;;2.83;;
68507;SDS011;55510;49.560;19.090;2023-11-25T02:40:52;4.97;;;1.90;;
68507;SDS011;55510;49.560;19.090;2023-11-25T02:43:53;6.15;;;2.42;;
68507;SDS011;55510;49.560;19.090;2023-11-25T02:46:54;6.40;;;2.88;;
68507;SDS011;55510;49.560;19.090;2023-11-25T02:49:55;6.50;;;2.53;;
68507;SDS011;55510;49.560;19.090;2023-11-25T02:52:57;6.05;;;2.03;;
68507;SDS011;55510;49.560;19.090;2023-11-25T02:55:57;5.13;;;1.80;;
68507;SDS011;55510;49.560;19.090;2023-11-25T02:59:17;6.15;;;2.08;;
68507;SDS011;55510;49.560;19.090;2023-11-25T03:02:22;8.40;;;2.72;;
68507;SDS011;55510;49.560;19.090;2023-11-25T03:05:24;7.57;;;2.70;;
68507;SDS011;55510;49.560;19.090;2023-11-25T03:08:25;7.27;;;2.83;;
68507;SDS011;55510;49.560;19.090;2023-11-25T03:11:27;5.45;;;1.88;;
68507;SDS011;55510;49.560;19.090;2023-11-25T03:14:28;4.37;;;1.10;;
68507;SDS011;55510;49.560;19.090;2023-11-25T03:17:29;5.15;;;1.63;;
68507;SDS011;55510;49.560;19.090;2023-11-25T03:20:30;5.13;;;1.37;;
68507;SDS011;55510;49.560;19.090;2023-11-25T03:23:30;7.45;;;2.88;;
68507;SDS011;55510;49.560;19.090;2023-11-25T03:26:31;6.70;;;2.30;;
68507;SDS011;55510;49.560;19.090;2023-11-25T03:29:33;6.25;;;2.45;;
68507;SDS011;55510;49.560;19.090;2023-11-25T03:32:35;6.28;;;3.45;;
68507;SDS011;55510;49.560;19.090;2023-11-25T03:35:35;8.07;;;2.90;;
68507;SDS011;55510;49.560;19.090;2023-11-25T03:38:36;8.75;;;2.60;;
68507;SDS011;55510;49.560;19.090;2023-11-25T03:41:37;6.50;;;2.10;;
68507;SDS011;55510;49.560;19.090;2023-11-25T03:44:37;7.53;;;2.80;;
68507;SDS011;55510;49.560;19.090;2023-11-25T03:47:41;5.90;;;1.77;;
68507;SDS011;55510;49.560;19.090;2023-11-25T03:50:44;4.32;;;1.40;;
68507;SDS011;55510;49.560;19.090;2023-11-25T03:53:45;5.00;;;1.60;;
68507;SDS011;55510;49.560;19.090;2023-11-25T03:56:46;5.57;;;2.40;;
68507;SDS011;55510;49.560;19.090;2023-11-25T03:59:47;8.40;;;3.72;;
68507;SDS011;55510;49.560;19.090;2023-11-25T04:02:48;5.97;;;2.30;;
68507;SDS011;55510;49.560;19.090;2023-11-25T04:05:49;6.38;;;2.78;;
68507;SDS011;55510;49.560;19.090;2023-11-25T04:08:49;6.20;;;2.97;;
68507;SDS011;55510;49.560;19.090;2023-11-25T04:11:50;5.37;;;2.03;;
68507;SDS011;55510;49.560;19.090;2023-11-25T04:14:52;6.20;;;2.35;;
68507;SDS011;55510;49.560;19.090;2023-11-25T04:17:53;5.78;;;2.17;;
68507;SDS011;55510;49.560;19.090;2023-11-25T04:20:54;8.43;;;3.93;;
68507;SDS011;55510;49.560;19.090;2023-11-25T04:23:54;7.32;;;3.03;;
68507;SDS011;55510;49.560;19.090;2023-11-25T04:26:56;7.60;;;2.40;;
68507;SDS011;55510;49.560;19.090;2023-11-25T04:29:56;6.75;;;3.05;;
68507;SDS011;55510;49.560;19.090;2023-11-25T04:32:57;6.07;;;2.90;;
68507;SDS011;55510;49.560;19.090;2023-11-25T04:35:58;12.27;;;6.25;;
68507;SDS011;55510;49.560;19.090;2023-11-25T04:38:59;13.47;;;6.77;;
68507;SDS011;55510;49.560;19.090;2023-11-25T04:42:00;10.63;;;4.03;;
68507;SDS011;55510;49.560;19.090;2023-11-25T04:45:01;9.87;;;5.20;;
68507;SDS011;55510;49.560;19.090;2023-11-25T04:48:03;7.53;;;2.60;;
68507;SDS011;55510;49.560;19.090;2023-11-25T04:51:04;6.55;;;2.28;;
68507;SDS011;55510;49.560;19.090;2023-11-25T04:54:05;5.90;;;2.53;;
68507;SDS011;55510;49.560;19.090;2023-11-25T04:57:05;6.97;;;2.37;;
68507;SDS011;55510;49.560;19.090;2023-11-25T05:00:07;11.10;;;3.50;;
68507;SDS011;55510;49.560;19.090;2023-11-25T05:03:10;6.43;;;2.50;;
68507;SDS011;55510;49.560;19.090;2023-11-25T05:06:11;6.60;;;2.55;;
68507;SDS011;55510;49.560;19.090;2023-11-25T05:09:11;8.30;;;3.30;;
68507;SDS011;55510;49.560;19.090;2023-11-25T05:12:18;5.72;;;2.78;;
68507;SDS011;55510;49.560;19.090;2023-11-25T05:15:19;5.88;;;2.90;;
68507;SDS011;55510;49.560;19.090;2023-11-25T05:18:23;8.85;;;3.60;;
68507;SDS011;55510;49.560;19.090;2023-11-25T05:21:24;10.52;;;4.10;;
68507;SDS011;55510;49.560;19.090;2023-11-25T05:24:25;10.47;;;3.20;;
68507;SDS011;55510;49.560;19.090;2023-11-25T05:27:25;9.25;;;4.13;;
68507;SDS011;55510;49.560;19.090;2023-11-25T05:30:26;11.00;;;3.95;;
68507;SDS011;55510;49.560;19.090;2023-11-25T05:33:27;14.30;;;4.50;;
68507;SDS011;55510;49.560;19.090;2023-11-25T05:36:28;13.77;;;3.25;;
68507;SDS011;55510;49.560;19.090;2023-11-25T05:39:28;21.80;;;8.63;;
68507;SDS011;55510;49.560;19.090;2023-11-25T05:42:29;35.67;;;11.53;;
68507;SDS011;55510;49.560;19.090;2023-11-25T05:45:30;32.40;;;11.65;;
68507;SDS011;55510;49.560;19.090;2023-11-25T05:48:31;5.53;;;2.78;;
68507;SDS011;55510;49.560;19.090;2023-11-25T05:51:36;7.38;;;3.60;;
68507;SDS011;55510;49.560;19.090;2023-11-25T05:54:43;8.47;;;3.50;;
68507;SDS011;55510;49.560;19.090;2023-11-25T05:57:44;6.15;;;2.15;;
68507;SDS011;55510;49.560;19.090;2023-11-25T06:00:46;6.97;;;2.42;;
68507;SDS011;55510;49.560;19.090;2023-11-25T06:03:47;8.47;;;3.47;;
68507;SDS011;55510;49.560;19.090;2023-11-25T06:06:51;10.95;;;4.95;;
68507;SDS011;55510;49.560;19.090;2023-11-25T06:09:51;11.87;;;5.87;;
68507;SDS011;55510;49.560;19.090;2023-11-25T06:12:52;13.25;;;7.07;;
68507;SDS011;55510;49.560;19.090;2023-11-25T06:15:53;9.17;;;3.60;;
68507;SDS011;55510;49.560;19.090;2023-11-25T06:18:53;4.63;;;1.00;;
68507;SDS011;55510;49.560;19.090;2023-11-25T06:21:55;33.40;;;10.75;;
68507;SDS011;55510;49.560;19.090;2023-11-25T06:24:55;10.33;;;3.17;;
68507;SDS011;55510;49.560;19.090;2023-11-25T06:27:58;5.20;;;1.38;;
68507;SDS011;55510;49.560;19.090;2023-11-25T06:30:59;7.78;;;2.38;;
68507;SDS011;55510;49.560;19.090;2023-11-25T06:33:59;9.60;;;2.80;;
68507;SDS011;55510;49.560;19.090;2023-11-25T06:37:01;13.20;;;3.72;;
68507;SDS011;55510;49.560;19.090;2023-11-25T06:40:01;9.67;;;3.20;;
68507;SDS011;55510;49.560;19.090;2023-11-25T06:43:03;8.57;;;3.85;;
68507;SDS011;55510;49.560;19.090;2023-11-25T06:46:04;11.33;;;3.33;;
68507;SDS011;55510;49.560;19.090;2023-11-25T06:49:05;10.15;;;3.55;;
68507;SDS011;55510;49.560;19.090;2023-11-25T06:52:07;11.48;;;4.55;;
68507;SDS011;55510;49.560;19.090;2023-11-25T06:55:08;25.35;;;9.90;;
68507;SDS011;55510;49.560;19.090;2023-11-25T06:58:10;20.30;;;6.73;;
68507;SDS011;55510;49.560;19.090;2023-11-25T07:01:17;13.93;;;5.30;;
68507;SDS011;55510;49.560;19.090;2023-11-25T07:04:22;18.98;;;5.05;;
68507;SDS011;55510;49.560;19.090;2023-11-25T07:07:22;10.18;;;3.45;;
68507;SDS011;55510;49.560;19.090;2023-11-25T07:10:23;16.47;;;7.03;;
68507;SDS011;55510;49.560;19.090;2023-11-25T07:13:24;10.88;;;4.03;;
68507;SDS011;55510;49.560;19.090;2023-11-25T07:16:28;10.20;;;4.10;;
68507;SDS011;55510;49.560;19.090;2023-11-25T07:19:28;12.63;;;5.03;;
68507;SDS011;55510;49.560;19.090;2023-11-25T07:22:29;10.93;;;4.03;;
68507;SDS011;55510;49.560;19.090;2023-11-25T07:25:30;13.85;;;5.05;;
68507;SDS011;55510;49.560;19.090;2023-11-25T07:28:32;11.55;;;5.47;;
68507;SDS011;55510;49.560;19.090;2023-11-25T07:31:34;17.50;;;6.00;;
68507;SDS011;55510;49.560;19.090;2023-11-25T07:34:34;16.53;;;6.30;;
68507;SDS011;55510;49.560;19.090;2023-11-25T07:37:36;16.98;;;7.40;;
68507;SDS011;55510;49.560;19.090;2023-11-25T07:40:38;42.90;;;16.58;;
68507;SDS011;55510;49.560;19.090;2023-11-25T07:43:39;35.87;;;16.37;;
68507;SDS011;55510;49.560;19.090;2023-11-25T07:46:40;34.05;;;12.98;;
68507;SDS011;55510;49.560;19.090;2023-11-25T07:49:40;27.87;;;10.97;;
68507;SDS011;55510;49.560;19.090;2023-11-25T07:52:41;66.18;;;16.13;;
68507;SDS011;55510;49.560;19.090;2023-11-25T07:55:42;26.67;;;7.43;;
68507;SDS011;55510;49.560;19.090;2023-11-25T07:58:43;14.02;;;4.55;;
68507;SDS011;55510;49.560;19.090;2023-11-25T08:01:44;28.33;;;12.65;;
68507;SDS011;55510;49.560;19.090;2023-11-25T08:04:45;15.20;;;7.40;;
68507;SDS011;55510;49.560;19.090;2023-11-25T08:07:46;23.52;;;10.60;;
68507;SDS011;55510;49.560;19.090;2023-11-25T08:10:47;20.13;;;7.18;;
68507;SDS011;55510;49.560;19.090;2023-11-25T08:13:49;20.95;;;8.48;;
68507;SDS011;55510;49.560;19.090;2023-11-25T08:16:50;42.27;;;17.33;;
68507;SDS011;55510;49.560;19.090;2023-11-25T08:19:51;126.60;;;38.83;;
68507;SDS011;55510;49.560;19.090;2023-11-25T08:22:51;284.37;;;66.87;;
68507;SDS011;55510;49.560;19.090;2023-11-25T08:25:52;178.23;;;49.37;;
68507;SDS011;55510;49.560;19.090;2023-11-25T08:28:53;34.47;;;10.17;;
68507;SDS011;55510;49.560;19.090;2023-11-25T08:31:55;28.08;;;9.48;;
68507;SDS011;55510;49.560;19.090;2023-11-25T08:34:55;65.40;;;23.23;;
68507;SDS011;55510;49.560;19.090;2023-11-25T08:37:56;31.95;;;14.48;;
68507;SDS011;55510;49.560;19.090;2023-11-25T08:40:57;21.25;;;9.77;;
68507;SDS011;55510;49.560;19.090;2023-11-25T08:43:58;20.17;;;9.30;;
68507;SDS011;55510;49.560;19.090;2023-11-25T08:46:59;27.02;;;11.30;;
68507;SDS011;55510;49.560;19.090;2023-11-25T08:50:00;27.38;;;11.95;;
68507;SDS011;55510;49.560;19.090;2023-11-25T08:53:01;19.97;;;10.50;;
68507;SDS011;55510;49.560;19.090;2023-11-25T08:56:02;45.58;;;27.15;;
68507;SDS011;55510;49.560;19.090;2023-11-25T08:59:04;74.43;;;27.90;;
68507;SDS011;55510;49.560;19.090;2023-11-25T09:02:05;58.17;;;20.42;;
68507;SDS011;55510;49.560;19.090;2023-11-25T09:05:09;81.10;;;21.67;;
68507;SDS011;55510;49.560;19.090;2023-11-25T09:08:11;66.95;;;19.70;;
68507;SDS011;55510;49.560;19.090;2023-11-25T09:11:11;59.10;;;18.95;;
68507;SDS011;55510;49.560;19.090;2023-11-25T09:14:12;76.43;;;20.27;;
68507;SDS011;55510;49.560;19.090;2023-11-25T09:17:15;36.03;;;10.48;;
68507;SDS011;55510;49.560;19.090;2023-11-25T09:20:16;40.55;;;12.50;;
68507;SDS011;55510;49.560;19.090;2023-11-25T09:23:17;37.70;;;11.27;;
68507;SDS011;55510;49.560;19.090;2023-11-25T09:26:18;37.13;;;11.80;;
68507;SDS011;55510;49.560;19.090;2023-11-25T09:29:21;39.75;;;11.57;;
68507;SDS011;55510;49.560;19.090;2023-11-25T09:32:22;48.47;;;10.90;;
68507;SDS011;55510;49.560;19.090;2023-11-25T09:35:24;32.93;;;8.43;;
68507;SDS011;55510;49.560;19.090;2023-11-25T09:38:25;38.58;;;10.25;;
68507;SDS011;55510;49.560;19.090;2023-11-25T09:41:27;43.15;;;11.02;;
68507;SDS011;55510;49.560;19.090;2023-11-25T09:44:31;27.52;;;8.15;;
68507;SDS011;55510;49.560;19.090;2023-11-25T09:47:32;17.70;;;5.43;;
68507;SDS011;55510;49.560;19.090;2023-11-25T09:50:33;36.70;;;8.50;;
68507;SDS011;55510;49.560;19.090;2023-11-25T09:53:36;32.05;;;8.82;;
68507;SDS011;55510;49.560;19.090;2023-11-25T09:56:37;28.70;;;7.68;;
68507;SDS011;55510;49.560;19.090;2023-11-25T09:59:39;18.70;;;6.03;;
68507;SDS011;55510;49.560;19.090;2023-11-25T10:02:42;14.18;;;4.18;;
68507;SDS011;55510;49.560;19.090;2023-11-25T10:05:43;15.52;;;4.45;;
68507;SDS011;55510;49.560;19.090;2023-11-25T10:08:44;21.70;;;7.72;;
68507;SDS011;55510;49.560;19.090;2023-11-25T10:11:44;17.20;;;7.20;;
68507;SDS011;55510;49.560;19.090;2023-11-25T10:14:46;64.53;;;27.02;;
68507;SDS011;55510;49.560;19.090;2023-11-25T10:17:47;32.90;;;11.20;;
68507;SDS011;55510;49.560;19.090;2023-11-25T10:20:48;26.83;;;11.05;;
68507;SDS011;55510;49.560;19.090;2023-11-25T10:23:52;20.25;;;8.75;;
68507;SDS011;55510;49.560;19.090;2023-11-25T10:26:54;17.63;;;7.53;;
68507;SDS011;55510;49.560;19.090;2023-11-25T10:29:55;12.40;;;4.63;;
68507;SDS011;55510;49.560;19.090;2023-11-25T10:32:58;11.23;;;3.95;;
68507;SDS011;55510;49.560;19.090;2023-11-25T10:36:01;10.25;;;4.45;;
68507;SDS011;55510;49.560;19.090;2023-11-25T10:39:04;14.45;;;5.90;;
68507;SDS011;55510;49.560;19.090;2023-11-25T10:42:08;14.07;;;6.37;;
68507;SDS011;55510;49.560;19.090;2023-11-25T10:45:16;18.60;;;5.80;;
68507;SDS011;55510;49.560;19.090;2023-11-25T10:48:21;21.63;;;7.72;;
68507;SDS011;55510;49.560;19.090;2023-11-25T10:51:24;17.67;;;7.03;;
68507;SDS011;55510;49.560;19.090;2023-11-25T10:54:24;18.17;;;6.60;;
68507;SDS011;55510;49.560;19.090;2023-11-25T10:57:30;22.15;;;7.72;;
68507;SDS011;55510;49.560;19.090;2023-11-25T11:00:32;20.33;;;7.82;;
68507;SDS011;55510;49.560;19.090;2023-11-25T11:06:51;16.03;;;5.27;;
68507;SDS011;55510;49.560;19.090;2023-11-25T11:09:55;29.30;;;12.57;;
68507;SDS011;55510;49.560;19.090;2023-11-25T11:12:59;27.25;;;12.48;;
68507;SDS011;55510;49.560;19.090;2023-11-25T11:16:17;23.52;;;10.65;;
68507;SDS011;55510;49.560;19.090;2023-11-25T11:19:28;33.28;;;12.27;;
68507;SDS011;55510;49.560;19.090;2023-11-25T11:22:42;31.73;;;10.67;;
68507;SDS011;55510;49.560;19.090;2023-11-25T11:25:49;29.42;;;9.90;;
68507;SDS011;55510;49.560;19.090;2023-11-25T11:29:14;26.93;;;11.00;;
68507;SDS011;55510;49.560;19.090;2023-11-25T11:32:18;19.37;;;8.73;;
68507;SDS011;55510;49.560;19.090;2023-11-25T11:35:20;16.20;;;5.88;;
68507;SDS011;55510;49.560;19.090;2023-11-25T11:38:34;28.35;;;11.90;;
68507;SDS011;55510;49.560;19.090;2023-11-25T11:41:43;37.85;;;14.10;;
68507;SDS011;55510;49.560;19.090;2023-11-25T11:44:54;49.13;;;14.67;;
68507;SDS011;55510;49.560;19.090;2023-11-25T11:47:55;50.55;;;16.20;;
68507;SDS011;55510;49.560;19.090;2023-11-25T11:50:57;25.58;;;9.38;;
68507;SDS011;55510;49.560;19.090;2023-11-25T11:57:20;15.18;;;6.07;;
68507;SDS011;55510;49.560;19.090;2023-11-25T12:00:21;16.15;;;6.55;;
68507;SDS011;55510;49.560;19.090;2023-11-25T12:03:22;23.10;;;9.20;;
68507;SDS011;55510;49.560;19.090;2023-11-25T12:06:23;15.40;;;6.30;;
68507;SDS011;55510;49.560;19.090;2023-11-25T12:09:27;17.67;;;6.53;;
68507;SDS011;55510;49.560;19.090;2023-11-25T12:12:29;11.23;;;4.80;;
68507;SDS011;55510;49.560;19.090;2023-11-25T12:15:31;14.40;;;5.22;;
68507;SDS011;55510;49.560;19.090;2023-11-25T12:18:32;15.95;;;6.70;;
68507;SDS011;55510;49.560;19.090;2023-11-25T12:21:34;17.02;;;7.20;;
68507;SDS011;55510;49.560;19.090;2023-11-25T12:24:35;17.33;;;8.83;;
68507;SDS011;55510;49.560;19.090;2023-11-25T12:27:36;15.87;;;6.93;;
68507;SDS011;55510;49.560;19.090;2023-11-25T12:30:37;11.00;;;5.32;;
68507;SDS011;55510;49.560;19.090;2023-11-25T12:33:40;13.13;;;5.93;;
68507;SDS011;55510;49.560;19.090;2023-11-25T12:36:41;12.27;;;5.78;;
68507;SDS011;55510;49.560;19.090;2023-11-25T12:39:42;11.27;;;4.30;;
68507;SDS011;55510;49.560;19.090;2023-11-25T12:42:44;14.77;;;6.38;;
68507;SDS011;55510;49.560;19.090;2023-11-25T12:45:46;22.63;;;10.50;;
68507;SDS011;55510;49.560;19.090;2023-11-25T12:48:48;23.53;;;10.73;;
68507;SDS011;55510;49.560;19.090;2023-11-25T12:51:48;32.13;;;14.40;;
68507;SDS011;55510;49.560;19.090;2023-11-25T12:54:53;27.83;;;12.07;;
68507;SDS011;55510;49.560;19.090;2023-11-25T12:57:53;28.42;;;12.38;;
68507;SDS011;55510;49.560;19.090;2023-11-25T13:00:55;39.50;;;15.43;;
68507;SDS011;55510;49.560;19.090;2023-11-25T13:04:03;34.37;;;17.23;;
68507;SDS011;55510;49.560;19.090;2023-11-25T13:07:05;53.10;;;27.52;;
68507;SDS011;55510;49.560;19.090;2023-11-25T13:10:06;42.80;;;22.33;;
68507;SDS011;55510;49.560;19.090;2023-11-25T13:13:07;33.03;;;13.77;;
68507;SDS011;55510;49.560;19.090;2023-11-25T13:16:09;37.15;;;15.38;;
68507;SDS011;55510;49.560;19.090;2023-11-25T13:19:11;39.83;;;15.87;;
68507;SDS011;55510;49.560;19.090;2023-11-25T13:22:12;30.37;;;12.40;;
68507;SDS011;55510;49.560;19.090;2023-11-25T13:25:15;30.33;;;12.05;;
68507;SDS011;55510;49.560;19.090;2023-11-25T13:28:16;37.35;;;13.68;;
68507;SDS011;55510;49.560;19.090;2023-11-25T13:31:17;37.77;;;15.40;;
68507;SDS011;55510;49.560;19.090;2023-11-25T13:34:18;43.63;;;15.97;;
68507;SDS011;55510;49.560;19.090;2023-11-25T13:37:19;39.83;;;15.57;;
68507;SDS011;55510;49.560;19.090;2023-11-25T13:40:20;47.77;;;17.83;;
68507;SDS011;55510;49.560;19.090;2023-11-25T13:43:21;54.03;;;21.42;;
68507;SDS011;55510;49.560;19.090;2023-11-25T13:46:21;44.97;;;19.70;;
68507;SDS011;55510;49.560;19.090;2023-11-25T13:49:22;40.60;;;16.98;;
68507;SDS011;55510;49.560;19.090;2023-11-25T13:52:23;80.90;;;38.23;;
68507;SDS011;55510;49.560;19.090;2023-11-25T13:55:24;50.83;;;22.93;;
68507;SDS011;55510;49.560;19.090;2023-11-25T13:58:24;100.65;;;37.53;;
68507;SDS011;55510;49.560;19.090;2023-11-25T14:01:25;102.43;;;38.40;;
68507;SDS011;55510;49.560;19.090;2023-11-25T14:04:27;85.50;;;31.93;;
68507;SDS011;55510;49.560;19.090;2023-11-25T14:07:28;66.88;;;24.80;;
68507;SDS011;55510;49.560;19.090;2023-11-25T14:10:33;60.90;;;22.20;;
68507;SDS011;55510;49.560;19.090;2023-11-25T14:13:35;55.35;;;19.35;;
68507;SDS011;55510;49.560;19.090;2023-11-25T14:16:35;44.73;;;17.40;;
68507;SDS011;55510;49.560;19.090;2023-11-25T14:19:36;29.90;;;13.63;;
68507;SDS011;55510;49.560;19.090;2023-11-25T14:22:39;38.37;;;13.30;;
68507;SDS011;55510;49.560;19.090;2023-11-25T14:25:40;35.72;;;14.10;;
68507;SDS011;55510;49.560;19.090;2023-11-25T14:28:41;34.63;;;15.35;;
68507;SDS011;55510;49.560;19.090;2023-11-25T14:31:41;39.67;;;17.17;;
68507;SDS011;55510;49.560;19.090;2023-11-25T14:34:42;157.80;;;53.15;;
68507;SDS011;55510;49.560;19.090;2023-11-25T14:37:43;116.50;;;43.33;;
68507;SDS011;55510;49.560;19.090;2023-11-25T14:40:44;155.52;;;52.05;;
68507;SDS011;55510;49.560;19.090;2023-11-25T14:43:45;163.80;;;61.28;;
68507;SDS011;55510;49.560;19.090;2023-11-25T14:46:48;149.57;;;56.90;;
68507;SDS011;55510;49.560;19.090;2023-11-25T14:49:50;114.40;;;44.10;;
68507;SDS011;55510;49.560;19.090;2023-11-25T14:52:51;85.30;;;32.10;;
68507;SDS011;55510;49.560;19.090;2023-11-25T14:55:52;87.00;;;37.03;;
68507;SDS011;55510;49.560;19.090;2023-11-25T14:58:52;185.93;;;70.10;;
68507;SDS011;55510;49.560;19.090;2023-11-25T15:01:53;194.70;;;77.13;;
68507;SDS011;55510;49.560;19.090;2023-11-25T15:04:54;316.43;;;103.50;;
68507;SDS011;55510;49.560;19.090;2023-11-25T15:07:55;258.42;;;96.55;;
68507;SDS011;55510;49.560;19.090;2023-11-25T15:10:55;299.03;;;112.67;;
68507;SDS011;55510;49.560;19.090;2023-11-25T15:13:58;305.58;;;109.93;;
68507;SDS011;55510;49.560;19.090;2023-11-25T15:16:59;253.00;;;89.25;;
68507;SDS011;55510;49.560;19.090;2023-11-25T15:20:02;200.27;;;79.33;;
68507;SDS011;55510;49.560;19.090;2023-11-25T15:23:03;279.55;;;90.13;;
68507;SDS011;55510;49.560;19.090;2023-11-25T15:26:04;433.88;;;121.60;;
68507;SDS011;55510;49.560;19.090;2023-11-25T15:29:06;213.77;;;80.33;;
68507;SDS011;55510;49.560;19.090;2023-11-25T15:32:07;220.30;;;86.37;;
68507;SDS011;55510;49.560;19.090;2023-11-25T15:35:08;256.90;;;91.47;;
68507;SDS011;55510;49.560;19.090;2023-11-25T15:38:09;282.85;;;93.72;;
68507;SDS011;55510;49.560;19.090;2023-11-25T15:41:10;265.48;;;94.30;;
68507;SDS011;55510;49.560;19.090;2023-11-25T15:44:12;252.33;;;87.90;;
68507;SDS011;55510;49.560;19.090;2023-11-25T15:47:13;196.43;;;72.90;;
68507;SDS011;55510;49.560;19.090;2023-11-25T15:50:14;204.23;;;76.93;;
68507;SDS011;55510;49.560;19.090;2023-11-25T15:53:15;220.03;;;84.20;;
68507;SDS011;55510;49.560;19.090;2023-11-25T15:56:16;193.90;;;71.20;;
68507;SDS011;55510;49.560;19.090;2023-11-25T15:59:17;202.93;;;71.43;;
68507;SDS011;55510;49.560;19.090;2023-11-25T16:02:18;275.73;;;88.87;;
68507;SDS011;55510;49.560;19.090;2023-11-25T16:05:19;252.98;;;80.22;;
68507;SDS011;55510;49.560;19.090;2023-11-25T16:08:22;142.97;;;51.13;;
68507;SDS011;55510;49.560;19.090;2023-11-25T16:11:23;81.28;;;33.42;;
68507;SDS011;55510;49.560;19.090;2023-11-25T16:14:28;64.50;;;27.08;;
68507;SDS011;55510;49.560;19.090;2023-11-25T16:17:28;106.63;;;42.97;;
68507;SDS011;55510;49.560;19.090;2023-11-25T16:20:29;104.80;;;39.80;;
68507;SDS011;55510;49.560;19.090;2023-11-25T16:23:30;91.53;;;35.87;;
68507;SDS011;55510;49.560;19.090;2023-11-25T16:26:31;93.30;;;36.50;;
68507;SDS011;55510;49.560;19.090;2023-11-25T16:29:31;93.20;;;35.53;;
68507;SDS011;55510;49.560;19.090;2023-11-25T16:32:32;88.30;;;33.92;;
68507;SDS011;55510;49.560;19.090;2023-11-25T16:35:33;95.70;;;36.33;;
68507;SDS011;55510;49.560;19.090;2023-11-25T16:38:34;98.28;;;39.40;;
68507;SDS011;55510;49.560;19.090;2023-11-25T16:41:35;145.17;;;51.80;;
68507;SDS011;55510;49.560;19.090;2023-11-25T16:44:36;178.68;;;64.07;;
68507;SDS011;55510;49.560;19.090;2023-11-25T16:47:38;293.67;;;97.78;;
68507;SDS011;55510;49.560;19.090;2023-11-25T16:50:39;294.70;;;94.40;;
68507;SDS011;55510;49.560;19.090;2023-11-25T16:53:39;324.70;;;108.53;;
68507;SDS011;55510;49.560;19.090;2023-11-25T16:56:41;208.18;;;69.97;;
68507;SDS011;55510;49.560;19.090;2023-11-25T16:59:42;221.30;;;82.20;;
68507;SDS011;55510;49.560;19.090;2023-11-25T17:02:43;64.85;;;29.15;;
68507;SDS011;55510;49.560;19.090;2023-11-25T17:05:44;197.40;;;67.32;;
68507;SDS011;55510;49.560;19.090;2023-11-25T17:08:46;203.40;;;71.80;;
68507;SDS011;55510;49.560;19.090;2023-11-25T17:11:47;199.27;;;71.97;;
68507;SDS011;55510;49.560;19.090;2023-11-25T17:14:48;268.67;;;85.70;;
68507;SDS011;55510;49.560;19.090;2023-11-25T17:17:48;196.45;;;59.63;;
68507;SDS011;55510;49.560;19.090;2023-11-25T17:21:08;103.23;;;32.07;;
68507;SDS011;55510;49.560;19.090;2023-11-25T17:24:08;149.05;;;43.40;;
68507;SDS011;55510;49.560;19.090;2023-11-25T17:27:09;186.17;;;53.33;;
68507;SDS011;55510;49.560;19.090;2023-11-25T17:30:10;160.35;;;48.25;;
68507;SDS011;55510;49.560;19.090;2023-11-25T17:33:20;186.40;;;53.17;;
68507;SDS011;55510;49.560;19.090;2023-11-25T17:36:20;157.20;;;50.70;;
68507;SDS011;55510;49.560;19.090;2023-11-25T17:39:22;162.23;;;52.80;;
68507;SDS011;55510;49.560;19.090;2023-11-25T17:42:22;137.73;;;47.63;;
68507;SDS011;55510;49.560;19.090;2023-11-25T17:45:24;118.10;;;42.08;;
68507;SDS011;55510;49.560;19.090;2023-11-25T17:48:25;111.60;;;43.87;;
68507;SDS011;55510;49.560;19.090;2023-11-25T17:51:26;118.37;;;44.10;;
68507;SDS011;55510;49.560;19.090;2023-11-25T17:54:26;145.57;;;52.00;;
68507;SDS011;55510;49.560;19.090;2023-11-25T17:57:27;136.82;;;48.15;;
68507;SDS011;55510;49.560;19.090;2023-11-25T18:00:29;129.45;;;48.33;;